createdAt,value
2017-10-20T00:01:07.475Z,953.88
2017-10-20T00:02:07.473Z,953.86
2017-10-20T00:04:00.852Z,953.89
2017-10-20T00:05:00.857Z,953.94
2017-10-20T00:06:54.267Z,954.02
2017-10-20T00:07:54.264Z,954.02
2017-10-20T00:09:47.145Z,954.04
2017-10-20T00:10:47.148Z,954.03
2017-10-20T00:12:40.560Z,954.08
2017-10-20T00:13:40.541Z,954.09
2017-10-20T00:15:33.937Z,954.13
2017-10-20T00:16:33.936Z,954.16
2017-10-20T00:18:27.342Z,954.20
2017-10-20T00:19:27.328Z,954.21
2017-10-20T00:21:20.715Z,954.23
2017-10-20T00:22:20.721Z,954.23
2017-10-20T00:24:14.128Z,954.25
2017-10-20T00:25:14.114Z,954.26
2017-10-20T00:27:07.503Z,954.25
2017-10-20T00:28:07.507Z,954.23
2017-10-20T00:30:00.915Z,954.27
2017-10-20T00:31:00.902Z,954.27
2017-10-20T00:32:54.329Z,954.31
2017-10-20T00:33:54.296Z,954.32
2017-10-20T00:35:47.681Z,954.30
2017-10-20T00:36:47.694Z,954.29
2017-10-20T00:38:41.095Z,954.28
2017-10-20T00:39:41.086Z,954.26
2017-10-20T00:41:34.480Z,954.25
2017-10-20T00:42:34.475Z,954.22
2017-10-20T00:44:27.883Z,954.22
2017-10-20T00:45:27.868Z,954.25
2017-10-20T00:47:21.256Z,954.27
2017-10-20T00:48:21.271Z,954.22
2017-10-20T00:50:14.669Z,954.25
2017-10-20T00:51:14.654Z,954.26
2017-10-20T00:53:08.044Z,954.28
2017-10-20T00:54:08.049Z,954.26
2017-10-20T00:56:01.456Z,954.24
2017-10-20T00:57:01.442Z,954.27
2017-10-20T00:58:54.841Z,954.23
2017-10-20T00:59:54.846Z,954.21
2017-10-20T01:01:48.255Z,954.16
2017-10-20T01:02:48.244Z,954.18
2017-10-20T01:04:41.629Z,954.12
2017-10-20T01:05:41.636Z,954.16
2017-10-20T01:07:35.041Z,954.09
2017-10-20T01:08:35.031Z,954.02
2017-10-20T01:10:27.921Z,953.97
2017-10-20T01:11:27.925Z,953.97
2017-10-20T01:13:21.332Z,954.05
2017-10-20T01:14:21.327Z,954.09
2017-10-20T01:16:14.709Z,954.10
2017-10-20T01:17:14.713Z,954.05
2017-10-20T01:19:07.627Z,954.11
2017-10-20T01:20:07.614Z,954.14
2017-10-20T01:22:01.001Z,954.09
2017-10-20T01:23:01.004Z,954.09
2017-10-20T01:24:54.414Z,954.14
2017-10-20T01:25:54.400Z,954.15
2017-10-20T01:27:47.790Z,954.25
2017-10-20T01:28:47.797Z,954.27
2017-10-20T01:30:41.200Z,954.35
2017-10-20T01:31:41.186Z,954.37
2017-10-20T01:33:34.586Z,954.37
2017-10-20T01:34:34.592Z,954.30
2017-10-20T01:36:27.997Z,954.29
2017-10-20T01:37:27.983Z,954.31
2017-10-20T01:39:21.391Z,954.25
2017-10-20T01:40:21.376Z,954.26
2017-10-20T01:42:14.767Z,954.25
2017-10-20T01:43:14.774Z,954.28
2017-10-20T01:45:08.201Z,954.31
2017-10-20T01:46:08.164Z,954.23
2017-10-20T01:48:01.551Z,954.31
2017-10-20T01:49:01.554Z,954.30
2017-10-20T01:50:54.969Z,954.31
2017-10-20T01:51:54.951Z,954.29
2017-10-20T01:53:48.342Z,954.31
2017-10-20T01:54:48.344Z,954.27
2017-10-20T01:56:41.756Z,954.29
2017-10-20T01:57:41.754Z,954.32
2017-10-20T01:59:36.131Z,954.24
2017-10-20T02:00:36.136Z,954.25
2017-10-20T02:02:29.548Z,954.26
2017-10-20T02:03:29.529Z,954.23
2017-10-20T02:05:22.917Z,954.29
2017-10-20T02:06:22.933Z,954.27
2017-10-20T02:08:16.348Z,954.26
2017-10-20T02:09:16.328Z,954.32
2017-10-20T02:11:09.734Z,954.35
2017-10-20T02:12:09.721Z,954.37
2017-10-20T02:14:03.108Z,954.43
2017-10-20T02:15:03.114Z,954.49
2017-10-20T02:16:56.520Z,954.46
2017-10-20T02:17:56.506Z,954.50
2017-10-20T02:19:49.893Z,954.59
2017-10-20T02:20:49.897Z,954.55
2017-10-20T02:22:43.330Z,954.55
2017-10-20T02:23:43.297Z,954.57
2017-10-20T02:25:36.680Z,954.60
2017-10-20T02:26:36.693Z,954.61
2017-10-20T02:28:30.095Z,954.62
2017-10-20T02:29:30.109Z,954.62
2017-10-20T02:31:23.470Z,954.67
2017-10-20T02:32:23.473Z,954.67
2017-10-20T02:34:16.882Z,954.68
2017-10-20T02:35:16.866Z,954.68
2017-10-20T02:37:10.264Z,954.66
2017-10-20T02:38:10.263Z,954.66
2017-10-20T02:40:03.665Z,954.70
2017-10-20T02:41:03.652Z,954.68
2017-10-20T02:42:57.039Z,954.66
2017-10-20T02:43:57.046Z,954.65
2017-10-20T02:45:50.451Z,954.64
2017-10-20T02:46:50.442Z,954.68
2017-10-20T02:48:43.849Z,954.67
2017-10-20T02:49:43.831Z,954.64
2017-10-20T02:51:37.236Z,954.61
2017-10-20T02:52:37.249Z,954.57
2017-10-20T02:54:30.646Z,954.57
2017-10-20T02:55:30.632Z,954.56
2017-10-20T02:57:24.025Z,954.54
2017-10-20T02:58:24.029Z,954.55
2017-10-20T03:00:17.437Z,954.52
2017-10-20T03:01:17.424Z,954.58
2017-10-20T03:03:10.811Z,954.60
2017-10-20T03:04:10.813Z,954.61
2017-10-20T03:06:04.231Z,954.60
2017-10-20T03:07:04.217Z,954.61
2017-10-20T03:08:57.623Z,954.59
2017-10-20T03:09:57.688Z,954.60
2017-10-20T03:11:51.032Z,954.55
2017-10-20T03:12:51.010Z,954.57
2017-10-20T03:14:44.400Z,954.59
2017-10-20T03:15:44.404Z,954.61
2017-10-20T03:17:37.809Z,954.60
2017-10-20T03:18:37.797Z,954.59
2017-10-20T03:20:31.195Z,954.52
2017-10-20T03:21:31.190Z,954.52
2017-10-20T03:23:24.596Z,954.52
2017-10-20T03:24:24.583Z,954.54
2017-10-20T03:26:18.041Z,954.49
2017-10-20T03:27:18.030Z,954.53
2017-10-20T03:29:11.405Z,954.46
2017-10-20T03:30:11.393Z,954.47
2017-10-20T03:32:04.780Z,954.44
2017-10-20T03:33:04.784Z,954.47
2017-10-20T03:34:58.193Z,954.51
2017-10-20T03:35:58.202Z,954.51
2017-10-20T03:37:51.564Z,954.53
2017-10-20T03:38:51.570Z,954.56
2017-10-20T03:40:44.977Z,954.56
2017-10-20T03:41:44.963Z,954.55
2017-10-20T03:43:38.375Z,954.60
2017-10-20T03:44:38.357Z,954.62
2017-10-20T03:46:31.746Z,954.57
2017-10-20T03:47:31.749Z,954.62
2017-10-20T03:49:25.161Z,954.63
2017-10-20T03:50:25.139Z,954.63
2017-10-20T03:52:18.529Z,954.62
2017-10-20T03:53:18.532Z,954.61
2017-10-20T03:55:11.954Z,954.63
2017-10-20T03:56:11.930Z,954.62
2017-10-20T03:58:05.315Z,954.59
2017-10-20T03:59:05.322Z,954.58
2017-10-20T04:00:58.759Z,954.63
2017-10-20T04:01:58.725Z,954.61
2017-10-20T04:03:52.182Z,954.59
2017-10-20T04:04:52.125Z,954.63
2017-10-20T04:06:45.522Z,954.58
2017-10-20T04:07:45.525Z,954.59
2017-10-20T04:09:38.901Z,954.59
2017-10-20T04:10:38.908Z,954.58
2017-10-20T04:12:32.307Z,954.55
2017-10-20T04:13:32.292Z,954.52
2017-10-20T04:15:25.688Z,954.47
2017-10-20T04:16:25.693Z,954.48
2017-10-20T04:18:19.118Z,954.49
2017-10-20T04:19:19.107Z,954.52
2017-10-20T04:21:12.483Z,954.52
2017-10-20T04:22:12.491Z,954.53
2017-10-20T04:24:05.897Z,954.51
2017-10-20T04:25:05.881Z,954.53
2017-10-20T04:26:59.267Z,954.52
2017-10-20T04:27:59.275Z,954.56
2017-10-20T04:29:52.240Z,954.52
2017-10-20T04:30:52.184Z,954.51
2017-10-20T04:32:45.567Z,954.48
2017-10-20T04:33:45.578Z,954.46
2017-10-20T04:35:38.975Z,954.45
2017-10-20T04:36:38.961Z,954.52
2017-10-20T04:38:32.353Z,954.51
2017-10-20T04:39:32.350Z,954.52
2017-10-20T04:41:25.261Z,954.60
2017-10-20T04:42:25.245Z,954.59
2017-10-20T04:44:18.632Z,954.60
2017-10-20T04:45:18.637Z,954.64
2017-10-20T04:47:12.059Z,954.63
2017-10-20T04:48:12.039Z,954.65
2017-10-20T04:50:05.425Z,954.62
2017-10-20T04:51:05.430Z,954.64
2017-10-20T04:52:58.836Z,954.61
2017-10-20T04:53:58.822Z,954.64
2017-10-20T04:55:52.235Z,954.66
2017-10-20T04:56:52.240Z,954.64
2017-10-20T04:58:45.648Z,954.66
2017-10-20T04:59:45.634Z,954.67
2017-10-20T05:01:39.025Z,954.67
2017-10-20T05:02:39.040Z,954.64
2017-10-20T05:04:32.434Z,954.67
2017-10-20T05:05:32.440Z,954.65
2017-10-20T05:07:26.825Z,954.64
2017-10-20T05:08:26.850Z,954.64
2017-10-20T05:10:20.230Z,954.64
2017-10-20T05:11:20.205Z,954.60
2017-10-20T05:13:13.640Z,954.65
2017-10-20T05:14:13.600Z,954.65
2017-10-20T05:16:07.827Z,954.68
2017-10-20T05:17:14.606Z,954.67
2017-10-20T05:19:00.417Z,954.64
2017-10-20T05:20:00.383Z,954.67
2017-10-20T05:21:53.771Z,954.67
2017-10-20T05:22:53.783Z,954.69
2017-10-20T05:24:47.189Z,954.70
2017-10-20T05:25:47.172Z,954.69
2017-10-20T05:27:40.553Z,954.70
2017-10-20T05:28:40.558Z,954.72
2017-10-20T05:30:33.980Z,954.71
2017-10-20T05:31:33.962Z,954.70
2017-10-20T05:33:27.352Z,954.69
2017-10-20T05:34:27.357Z,954.65
2017-10-20T05:36:20.760Z,954.64
2017-10-20T05:37:20.747Z,954.62
2017-10-20T05:39:14.137Z,954.61
2017-10-20T05:40:14.140Z,954.65
2017-10-20T05:42:07.549Z,954.69
2017-10-20T05:43:07.533Z,954.70
2017-10-20T05:45:00.922Z,954.73
2017-10-20T05:46:00.926Z,954.74
2017-10-20T05:47:54.330Z,954.80
2017-10-20T05:48:54.336Z,954.84
2017-10-20T05:50:47.765Z,954.84
2017-10-20T05:51:47.752Z,954.78
2017-10-20T05:53:41.231Z,954.76
2017-10-20T05:54:49.791Z,954.78
2017-10-20T05:56:34.563Z,954.80
2017-10-20T05:57:34.545Z,954.79
2017-10-20T05:59:28.222Z,954.82
2017-10-20T06:00:27.927Z,954.77
2017-10-20T06:02:21.349Z,954.74
2017-10-20T06:03:21.394Z,954.78
2017-10-20T06:05:15.855Z,954.82
2017-10-20T06:06:15.764Z,954.81
2017-10-20T06:08:09.131Z,954.79
2017-10-20T06:09:09.158Z,954.83
2017-10-20T06:11:03.550Z,954.86
2017-10-20T06:12:03.569Z,954.87
2017-10-20T06:13:57.936Z,954.92
2017-10-20T06:14:58.033Z,954.92
2017-10-20T06:16:51.380Z,954.91
2017-10-20T06:17:51.313Z,954.89
2017-10-20T06:19:44.763Z,954.92
2017-10-20T06:20:44.751Z,954.98
2017-10-20T06:22:39.140Z,955.04
2017-10-20T06:23:39.119Z,954.99
2017-10-20T06:25:33.553Z,955.04
2017-10-20T06:26:33.580Z,955.07
2017-10-20T06:28:26.997Z,955.11
2017-10-20T06:29:26.923Z,955.10
2017-10-20T06:31:20.421Z,955.05
2017-10-20T06:32:20.346Z,955.06
2017-10-20T06:34:13.726Z,955.07
2017-10-20T06:35:13.717Z,955.10
2017-10-20T06:37:07.206Z,955.09
2017-10-20T06:38:07.163Z,955.16
2017-10-20T06:40:00.589Z,955.19
2017-10-20T06:41:00.507Z,955.19
2017-10-20T06:42:53.956Z,955.28
2017-10-20T06:43:53.921Z,955.30
2017-10-20T06:45:47.340Z,955.36
2017-10-20T06:46:47.317Z,955.35
2017-10-20T06:48:40.741Z,955.34
2017-10-20T06:49:40.742Z,955.36
2017-10-20T06:51:34.095Z,955.37
2017-10-20T06:52:34.107Z,955.34
2017-10-20T06:54:27.474Z,955.38
2017-10-20T06:55:27.476Z,955.42
2017-10-20T06:57:20.881Z,955.44
2017-10-20T06:58:20.887Z,955.40
2017-10-20T07:00:14.301Z,955.42
2017-10-20T07:01:14.311Z,955.40
2017-10-20T07:03:07.752Z,955.42
2017-10-20T07:04:07.734Z,955.44
2017-10-20T07:06:02.099Z,955.45
2017-10-20T07:07:02.097Z,955.48
2017-10-20T07:08:55.465Z,955.50
2017-10-20T07:09:55.481Z,955.53
2017-10-20T07:11:48.866Z,955.53
2017-10-20T07:12:48.886Z,955.55
2017-10-20T07:14:42.261Z,955.58
2017-10-20T07:15:42.281Z,955.60
2017-10-20T07:17:35.665Z,955.65
2017-10-20T07:18:35.689Z,955.61
2017-10-20T07:20:29.110Z,955.64
2017-10-20T07:21:29.074Z,955.65
2017-10-20T07:23:22.479Z,955.67
2017-10-20T07:24:22.518Z,955.70
2017-10-20T07:26:16.844Z,955.73
2017-10-20T07:27:16.879Z,955.75
2017-10-20T07:29:11.885Z,955.82
2017-10-20T07:30:12.297Z,955.77
2017-10-20T07:32:06.635Z,955.84
2017-10-20T07:33:06.570Z,955.83
2017-10-20T07:34:59.780Z,955.88
2017-10-20T07:35:59.607Z,955.85
2017-10-20T07:37:53.141Z,955.86
2017-10-20T07:38:53.026Z,955.84
2017-10-20T07:40:47.545Z,955.86
2017-10-20T07:41:56.050Z,955.87
2017-10-20T07:43:42.446Z,955.89
2017-10-20T07:44:40.827Z,955.90
2017-10-20T07:46:34.242Z,955.99
2017-10-20T07:47:34.258Z,956.02
2017-10-20T07:49:27.644Z,956.02
2017-10-20T07:50:27.627Z,956.04
2017-10-20T07:52:21.053Z,956.03
2017-10-20T07:53:21.052Z,956.06
2017-10-20T07:55:14.423Z,956.03
2017-10-20T07:56:14.428Z,956.03
2017-10-20T07:58:07.828Z,956.07
2017-10-20T07:59:07.815Z,956.03
2017-10-20T08:01:01.240Z,956.09
2017-10-20T08:02:01.245Z,956.07
2017-10-20T08:03:54.667Z,956.04
2017-10-20T08:04:54.661Z,956.05
2017-10-20T08:06:48.046Z,956.06
2017-10-20T08:07:48.044Z,956.09
2017-10-20T08:09:41.472Z,956.05
2017-10-20T08:10:41.441Z,956.10
2017-10-20T08:12:34.902Z,956.09
2017-10-20T08:13:34.919Z,956.08
2017-10-20T08:15:28.781Z,956.14
2017-10-20T08:16:28.885Z,956.09
2017-10-20T08:18:21.717Z,956.15
2017-10-20T08:19:21.697Z,956.14
2017-10-20T08:21:16.077Z,956.11
2017-10-20T08:22:16.063Z,956.08
2017-10-20T08:24:09.454Z,956.12
2017-10-20T08:25:09.460Z,956.16
2017-10-20T08:27:02.869Z,956.14
2017-10-20T08:28:02.855Z,956.16
2017-10-20T08:29:56.271Z,956.06
2017-10-20T08:30:56.248Z,956.10
2017-10-20T08:32:49.640Z,956.10
2017-10-20T08:33:49.656Z,956.05
2017-10-20T08:35:43.058Z,956.08
2017-10-20T08:36:43.051Z,956.10
2017-10-20T08:38:36.454Z,956.09
2017-10-20T08:39:36.467Z,956.11
2017-10-20T08:41:29.861Z,956.17
2017-10-20T08:42:29.854Z,956.20
2017-10-20T08:44:23.387Z,956.21
2017-10-20T08:45:23.377Z,956.24
2017-10-20T08:47:16.755Z,956.26
2017-10-20T08:48:16.762Z,956.28
2017-10-20T08:50:10.161Z,956.37
2017-10-20T08:51:10.499Z,956.41
2017-10-20T08:53:03.580Z,956.38
2017-10-20T08:54:03.531Z,956.38
2017-10-20T08:55:56.904Z,956.40
2017-10-20T08:56:56.979Z,956.46
2017-10-20T08:58:50.526Z,956.38
2017-10-20T08:59:50.553Z,956.39
2017-10-20T09:01:45.037Z,956.41
2017-10-20T09:02:44.958Z,956.40
2017-10-20T09:04:38.379Z,956.42
2017-10-20T09:05:38.397Z,956.40
2017-10-20T09:07:32.781Z,956.41
2017-10-20T09:08:32.895Z,956.40
2017-10-20T09:10:26.258Z,956.39
2017-10-20T09:11:26.195Z,956.40
2017-10-20T09:13:20.507Z,956.48
2017-10-20T09:14:20.007Z,956.50
2017-10-20T09:16:12.957Z,956.54
2017-10-20T09:17:12.969Z,956.57
2017-10-20T09:19:06.423Z,956.58
2017-10-20T09:20:06.427Z,956.62
2017-10-20T09:22:00.871Z,956.59
2017-10-20T09:23:00.895Z,956.58
2017-10-20T09:24:54.319Z,956.60
2017-10-20T09:25:54.332Z,956.60
2017-10-20T09:27:47.701Z,956.62
2017-10-20T09:28:47.727Z,956.62
2017-10-20T09:30:41.143Z,956.60
2017-10-20T09:31:41.158Z,956.57
2017-10-20T09:33:34.525Z,956.67
2017-10-20T09:34:34.554Z,956.70
2017-10-20T09:36:27.946Z,956.66
2017-10-20T09:37:28.170Z,956.60
2017-10-20T09:39:21.399Z,956.66
2017-10-20T09:40:21.460Z,956.65
2017-10-20T09:42:14.837Z,956.64
2017-10-20T09:43:14.814Z,956.67
2017-10-20T09:45:08.229Z,956.69
2017-10-20T09:46:08.242Z,956.72
2017-10-20T09:48:03.372Z,956.72
2017-10-20T09:49:03.390Z,956.73
2017-10-20T09:50:56.750Z,956.72
2017-10-20T09:51:56.783Z,956.71
2017-10-20T09:53:51.060Z,956.73
2017-10-20T09:54:50.155Z,956.73
2017-10-20T09:56:43.561Z,956.71
2017-10-20T09:57:44.163Z,956.71
2017-10-20T09:59:36.969Z,956.78
2017-10-20T10:00:36.963Z,956.76
2017-10-20T10:02:30.339Z,956.79
2017-10-20T10:03:30.385Z,956.77
2017-10-20T10:05:23.815Z,956.86
2017-10-20T10:06:23.815Z,956.84
2017-10-20T10:08:17.325Z,956.81
2017-10-20T10:09:17.226Z,956.79
2017-10-20T10:11:10.589Z,956.75
2017-10-20T10:12:10.674Z,956.70
2017-10-20T10:14:04.071Z,956.91
2017-10-20T10:15:04.056Z,956.90
2017-10-20T10:16:58.451Z,957.03
2017-10-20T10:17:58.454Z,957.02
2017-10-20T10:19:51.894Z,957.14
2017-10-20T10:20:51.830Z,957.05
2017-10-20T10:22:45.316Z,956.85
2017-10-20T10:23:45.335Z,956.77
2017-10-20T10:25:38.720Z,956.76
2017-10-20T10:26:38.740Z,956.79
2017-10-20T10:28:32.117Z,956.73
2017-10-20T10:29:32.174Z,956.72
2017-10-20T10:31:25.604Z,956.76
2017-10-20T10:32:25.602Z,956.78
2017-10-20T10:34:19.001Z,956.97
2017-10-20T10:35:18.993Z,956.87
2017-10-20T10:37:12.421Z,956.97
2017-10-20T10:38:12.403Z,957.10
2017-10-20T10:40:05.771Z,957.05
2017-10-20T10:41:05.796Z,957.07
2017-10-20T10:42:59.243Z,957.17
2017-10-20T10:43:59.231Z,957.18
2017-10-20T10:45:52.663Z,957.23
2017-10-20T10:46:52.663Z,957.18
2017-10-20T10:48:47.104Z,957.21
2017-10-20T10:49:47.123Z,957.25
2017-10-20T10:51:40.588Z,957.33
2017-10-20T10:52:40.613Z,957.40
2017-10-20T10:54:33.973Z,957.34
2017-10-20T10:55:33.991Z,957.24
2017-10-20T10:57:27.414Z,957.30
2017-10-20T10:58:27.445Z,957.32
2017-10-20T11:00:20.826Z,957.32
2017-10-20T11:01:20.856Z,957.33
2017-10-20T11:03:14.275Z,957.33
2017-10-20T11:04:14.302Z,957.32
2017-10-20T11:06:07.701Z,957.30
2017-10-20T11:07:07.715Z,957.24
2017-10-20T11:09:01.166Z,957.21
2017-10-20T11:10:01.146Z,957.19
2017-10-20T11:11:54.555Z,957.24
2017-10-20T11:12:54.575Z,957.21
2017-10-20T11:14:48.005Z,957.20
2017-10-20T11:15:48.043Z,957.20
2017-10-20T11:17:41.453Z,957.23
2017-10-20T11:18:41.463Z,957.19
2017-10-20T11:20:34.881Z,957.20
2017-10-20T11:21:34.886Z,957.13
2017-10-20T11:23:28.311Z,957.05
2017-10-20T11:24:28.354Z,957.08
2017-10-20T11:26:21.770Z,957.05
2017-10-20T11:27:21.774Z,957.01
2017-10-20T11:29:15.202Z,957.05
2017-10-20T11:30:15.219Z,957.04
2017-10-20T11:32:08.618Z,957.00
2017-10-20T11:33:08.649Z,957.00
2017-10-20T11:35:02.097Z,956.94
2017-10-20T11:36:02.087Z,956.94
2017-10-20T11:37:55.550Z,957.01
2017-10-20T11:38:55.537Z,957.00
2017-10-20T11:40:48.980Z,956.95
2017-10-20T11:41:48.976Z,956.94
2017-10-20T11:43:43.456Z,956.94
2017-10-20T11:44:43.390Z,956.90
2017-10-20T11:46:36.834Z,956.86
2017-10-20T11:47:36.844Z,956.93
2017-10-20T11:49:30.242Z,956.80
2017-10-20T11:50:30.297Z,956.74
2017-10-20T11:52:23.665Z,956.69
2017-10-20T11:53:23.742Z,956.75
2017-10-20T11:55:17.164Z,956.54
2017-10-20T11:56:17.098Z,956.54
2017-10-20T11:58:10.596Z,956.50
2017-10-20T11:59:11.496Z,956.42
2017-10-20T12:01:04.958Z,956.47
2017-10-20T12:02:04.976Z,956.52
2017-10-20T12:03:58.391Z,956.75
2017-10-20T12:04:58.411Z,956.83
2017-10-20T12:06:51.825Z,956.78
2017-10-20T12:07:51.875Z,956.76
2017-10-20T12:09:45.292Z,956.78
2017-10-20T12:10:45.252Z,956.70
2017-10-20T12:12:38.677Z,956.63
2017-10-20T12:13:38.657Z,956.59
2017-10-20T12:15:32.080Z,956.54
2017-10-20T12:16:32.111Z,956.60
2017-10-20T12:18:25.550Z,956.66
2017-10-20T12:19:25.576Z,956.53
2017-10-20T12:21:18.923Z,956.74
2017-10-20T12:22:18.962Z,956.73
2017-10-20T12:24:12.362Z,956.69
2017-10-20T12:25:12.383Z,956.68
2017-10-20T12:27:05.766Z,956.59
2017-10-20T12:28:05.804Z,956.60
2017-10-20T12:29:59.244Z,956.54
2017-10-20T12:30:59.253Z,956.56
2017-10-20T12:32:52.669Z,956.39
2017-10-20T12:33:52.676Z,956.40
2017-10-20T12:35:46.091Z,956.29
2017-10-20T12:36:46.091Z,956.55
2017-10-20T12:38:39.492Z,956.24
2017-10-20T12:39:39.508Z,956.24
2017-10-20T12:41:32.901Z,956.44
2017-10-20T12:42:32.951Z,956.42
2017-10-20T12:44:26.354Z,956.53
2017-10-20T12:45:26.410Z,956.50
2017-10-20T12:47:19.747Z,956.40
2017-10-20T12:48:19.788Z,956.38
2017-10-20T12:50:13.198Z,956.33
2017-10-20T12:51:13.181Z,956.31
2017-10-20T12:53:06.580Z,956.14
2017-10-20T12:54:06.596Z,956.18
2017-10-20T12:56:00.055Z,956.30
2017-10-20T12:57:00.015Z,956.35
2017-10-20T12:58:53.448Z,956.20
2017-10-20T12:59:53.448Z,956.25
2017-10-20T13:01:46.893Z,956.32
2017-10-20T13:02:46.902Z,956.30
2017-10-20T13:04:40.300Z,956.21
2017-10-20T13:05:40.321Z,956.19
2017-10-20T13:07:33.780Z,956.12
2017-10-20T13:08:33.744Z,956.19
2017-10-20T13:10:27.154Z,956.17
2017-10-20T13:11:27.172Z,956.21
2017-10-20T13:13:20.604Z,956.20
2017-10-20T13:14:20.597Z,956.21
2017-10-20T13:16:13.982Z,956.22
2017-10-20T13:17:14.016Z,956.18
2017-10-20T13:19:08.434Z,956.29
2017-10-20T13:20:08.452Z,956.22
2017-10-20T13:22:01.895Z,956.14
2017-10-20T13:23:01.833Z,956.24
2017-10-20T13:24:55.387Z,956.27
2017-10-20T13:25:56.350Z,956.26
2017-10-20T13:27:48.737Z,956.21
2017-10-20T13:28:48.696Z,956.21
2017-10-20T13:30:42.091Z,956.14
2017-10-20T13:31:42.243Z,956.05
2017-10-20T13:33:35.516Z,956.17
2017-10-20T13:34:35.541Z,956.08
2017-10-20T13:36:28.967Z,956.14
2017-10-20T13:37:28.974Z,956.08
2017-10-20T13:39:22.355Z,956.09
2017-10-20T13:40:22.406Z,956.08
2017-10-20T13:42:15.813Z,956.06
2017-10-20T13:43:15.801Z,956.06
2017-10-20T13:45:09.245Z,956.05
2017-10-20T13:46:09.215Z,956.05
2017-10-20T13:48:02.673Z,956.05
2017-10-20T13:49:02.641Z,956.09
2017-10-20T13:50:56.014Z,956.12
2017-10-20T13:51:56.083Z,956.10
2017-10-20T13:53:49.467Z,956.11
2017-10-20T13:54:49.471Z,956.09
2017-10-20T13:56:42.861Z,956.06
2017-10-20T13:57:42.886Z,956.11
2017-10-20T13:59:36.292Z,956.14
2017-10-20T14:00:36.298Z,956.11
2017-10-20T14:02:29.681Z,956.09
2017-10-20T14:03:29.745Z,956.12
2017-10-20T14:05:23.172Z,956.15
2017-10-20T14:06:23.102Z,956.18
2017-10-20T14:08:16.589Z,956.15
2017-10-20T14:09:16.575Z,956.19
2017-10-20T14:11:10.982Z,956.21
2017-10-20T14:12:10.976Z,956.19
2017-10-20T14:14:05.373Z,956.21
2017-10-20T14:15:05.393Z,956.19
2017-10-20T14:16:58.845Z,956.20
2017-10-20T14:17:58.829Z,956.21
2017-10-20T14:19:52.165Z,956.20
2017-10-20T14:20:52.207Z,956.20
2017-10-20T14:22:46.625Z,956.28
2017-10-20T14:25:18.708Z,956.31
2017-10-20T14:26:18.721Z,956.29
2017-10-20T14:28:12.139Z,956.22
2017-10-20T14:29:12.137Z,956.24
2017-10-20T14:31:05.536Z,956.23
2017-10-20T14:32:05.542Z,956.27
2017-10-20T14:33:58.975Z,956.28
2017-10-20T14:34:58.956Z,956.28
2017-10-20T14:36:52.353Z,956.23
2017-10-20T14:37:52.361Z,956.35
2017-10-20T14:39:45.779Z,956.32
2017-10-20T14:40:45.776Z,956.39
2017-10-20T14:42:39.176Z,956.36
2017-10-20T14:43:39.185Z,956.33
2017-10-20T14:45:32.603Z,956.31
2017-10-20T14:46:32.600Z,956.32
2017-10-20T14:48:25.997Z,956.35
2017-10-20T14:49:26.005Z,956.38
2017-10-20T14:51:19.429Z,956.36
2017-10-20T14:52:19.421Z,956.40
2017-10-20T14:54:12.338Z,956.38
2017-10-20T14:55:12.333Z,956.34
2017-10-20T14:57:05.728Z,956.38
2017-10-20T14:58:05.740Z,956.33
2017-10-20T14:59:59.155Z,956.39
2017-10-20T15:00:59.708Z,956.36
2017-10-20T15:02:52.547Z,956.41
2017-10-20T15:03:52.556Z,956.38
2017-10-20T15:05:45.977Z,956.32
2017-10-20T15:06:45.966Z,956.40
2017-10-20T15:08:38.874Z,956.41
2017-10-20T15:09:39.489Z,956.47
2017-10-20T15:11:32.363Z,956.52
2017-10-20T15:12:32.327Z,956.58
2017-10-20T15:14:25.722Z,956.54
2017-10-20T15:15:25.727Z,956.52
2017-10-20T15:17:26.772Z,956.53
2017-10-20T15:18:20.048Z,956.50
2017-10-20T15:20:12.564Z,956.49
2017-10-20T15:21:12.738Z,956.57
2017-10-20T15:23:05.995Z,956.62
2017-10-20T15:24:05.981Z,956.66
2017-10-20T15:25:59.605Z,956.70
2017-10-20T15:26:59.423Z,956.73
2017-10-20T15:28:52.826Z,956.82
2017-10-20T15:29:52.817Z,956.87
2017-10-20T15:31:46.248Z,956.85
2017-10-20T15:32:46.257Z,956.87
2017-10-20T15:34:39.675Z,956.85
2017-10-20T15:35:39.665Z,956.84
2017-10-20T15:37:32.587Z,956.85
2017-10-20T15:38:32.576Z,956.89
2017-10-20T15:40:25.980Z,956.86
2017-10-20T15:41:26.002Z,956.85
2017-10-20T15:43:19.427Z,956.89
2017-10-20T15:44:19.413Z,956.92
2017-10-20T15:46:13.233Z,956.94
2017-10-20T15:47:12.861Z,956.90
2017-10-20T15:49:08.980Z,956.91
2017-10-20T15:50:06.266Z,956.87
2017-10-20T15:51:59.676Z,956.92
2017-10-20T15:52:59.678Z,956.93
2017-10-20T15:54:53.097Z,956.89
2017-10-20T15:55:53.093Z,956.94
2017-10-20T15:57:46.515Z,957.03
2017-10-20T15:58:46.504Z,957.08
2017-10-20T16:00:39.903Z,957.14
2017-10-20T16:01:39.910Z,957.19
2017-10-20T16:03:33.339Z,957.20
2017-10-20T16:04:33.326Z,957.20
2017-10-20T16:06:26.750Z,957.13
2017-10-20T16:07:26.760Z,957.15
2017-10-20T16:09:20.180Z,957.17
2017-10-20T16:10:20.167Z,957.22
2017-10-20T16:12:13.566Z,957.21
2017-10-20T16:13:13.577Z,957.16
2017-10-20T16:15:06.991Z,957.15
2017-10-20T16:16:07.000Z,957.17
2017-10-20T16:18:00.380Z,957.17
2017-10-20T16:19:00.384Z,957.19
2017-10-20T16:20:53.808Z,957.20
2017-10-20T16:21:53.797Z,957.25
2017-10-20T16:23:47.328Z,957.17
2017-10-20T16:24:47.318Z,957.17
2017-10-20T16:26:40.726Z,957.12
2017-10-20T16:27:40.740Z,957.07
2017-10-20T16:29:34.119Z,957.10
2017-10-20T16:30:34.116Z,957.05
2017-10-20T16:32:28.591Z,957.03
2017-10-20T16:33:28.570Z,957.03
2017-10-20T16:35:21.959Z,957.01
2017-10-20T16:36:21.942Z,956.99
2017-10-20T16:38:15.358Z,956.96
2017-10-20T16:39:15.375Z,956.93
2017-10-20T16:41:08.797Z,956.90
2017-10-20T16:42:08.797Z,956.97
2017-10-20T16:44:02.189Z,957.06
2017-10-20T16:45:02.205Z,957.06
2017-10-20T16:46:55.614Z,957.16
2017-10-20T16:47:55.744Z,957.23
2017-10-20T16:49:49.669Z,957.20
2017-10-20T16:50:49.721Z,957.13
2017-10-20T16:52:45.377Z,957.16
2017-10-20T16:53:45.219Z,957.11
2017-10-20T16:55:39.963Z,957.10
2017-10-20T16:56:39.911Z,957.16
2017-10-20T16:58:35.666Z,957.19
2017-10-20T16:59:34.336Z,957.21
2017-10-20T17:02:14.111Z,957.18
2017-10-20T17:03:15.013Z,957.20
2017-10-20T17:05:07.540Z,957.27
2017-10-20T17:06:07.665Z,957.31
2017-10-20T17:08:02.947Z,957.37
2017-10-20T17:09:03.020Z,957.40
2017-10-20T17:10:57.484Z,957.42
2017-10-20T17:11:57.444Z,957.40
2017-10-20T17:13:51.867Z,957.38
2017-10-20T17:14:51.813Z,957.35
2017-10-20T17:16:45.486Z,957.39
2017-10-20T17:17:45.317Z,957.39
2017-10-20T17:19:38.762Z,957.38
2017-10-20T17:20:40.122Z,957.39
2017-10-20T17:22:32.230Z,957.39
2017-10-20T17:23:32.217Z,957.39
2017-10-20T17:25:25.682Z,957.47
2017-10-20T17:26:25.639Z,957.41
2017-10-20T17:28:19.047Z,957.50
2017-10-20T17:29:19.031Z,957.50
2017-10-20T17:31:12.441Z,957.55
2017-10-20T17:32:12.431Z,957.54
2017-10-20T17:34:05.860Z,957.57
2017-10-20T17:35:05.831Z,957.55
2017-10-20T17:36:59.223Z,957.57
2017-10-20T17:37:59.234Z,957.57
2017-10-20T17:39:52.681Z,957.60
2017-10-20T17:40:52.645Z,957.59
2017-10-20T17:42:46.065Z,957.64
2017-10-20T17:43:46.069Z,957.62
2017-10-20T17:45:39.475Z,957.64
2017-10-20T17:46:39.462Z,957.60
2017-10-20T17:48:32.854Z,957.60
2017-10-20T17:49:32.868Z,957.60
2017-10-20T17:51:26.282Z,957.59
2017-10-20T17:52:26.274Z,957.59
2017-10-20T17:54:19.690Z,957.60
2017-10-20T17:55:19.703Z,957.61
2017-10-20T17:57:13.114Z,957.61
2017-10-20T17:58:13.109Z,957.65
2017-10-20T18:00:06.564Z,957.65
2017-10-20T18:01:07.105Z,957.64
2017-10-20T18:03:00.037Z,957.66
2017-10-20T18:04:00.052Z,957.67